首页
METAR-TAF:

METAR-TAF

机场 :

Appleton, 威斯康辛州, 美国

纬度: 44-15N, 经度: 088-31W, 海拔: 280米

当前天气观测

该预报发布于28分钟前的20:45 UTC
风速12节,风向西转西北
温度 -6°C
湿度 79%
气压 1006 hPa
能見度: 11.3公里
阴天层高于1500英尺

METAR: KATW 142045Z 29012KT 7SM OVC015 M06/M09 A2970

时间: 15:13 (21:13 UTC)

预报

该预报发布于3小时和42分钟前的17:31 UTC
预报有效从14日的 18点(UTC)到 15日的 18点(UTC)
风速10节,风向西转西北
能見度: 10公里
散云层高于600英尺
阴天层高于1200英尺
短暂存在
从 14日的 18点(UTC)到 14日的 21点(UTC)
能見度: 8.0公里
多云层高于600英尺
(小) 冻, 毛毛雨, 雪, 轻雾
从 14日的 2100点(UTC)
风速11节,风向西转西北,有时为17节阵风
能見度: 10公里
多云层高于2500英尺
短暂存在
从 14日的 21点(UTC)到 14日的 23点(UTC)
能見度: 8.0公里
小阵雪
从 15日的 0400点(UTC)
风速8节,风向西转西北
能見度: 10公里
多云层高于2800英尺
从 15日的 0600点(UTC)
风速7节,风向西转西北
能見度: 10公里
多云层高于4000英尺
从 15日的 0900点(UTC)
风速6节,风向西转西北
能見度: 10公里
散云层高于20000英尺

TAF: KATW 141731Z 1418/1518 29010KT P6SM SCT006 OVC012 TEMPO 1418/1421 5SM -FZDZSN BR BKN006 FM142100 30011G17KT P6SM BKN025 TEMPO 1421/1423 5SM -SHSN FM150400 30008KT P6SM BKN028 FM150600 30007KT P6SM BKN040 FM150900 29006KT P6SM SCT200

超过4000个机场的气象观测和天气预报(METAR&TAF报告)。

可查询的气象台以黄色和红色小点在地图上表示。

将鼠标移到小点上方,可查看气象台名称。

然后点击查看天气观测和预报。

如需切换地图:点击带黑十字的绿色按钮放大地图;点击带横线的绿色按钮缩小地图;或者点击绿色箭头查看邻近地区的地图。


METAR-TAF: